Time,TemperatureF,DewpointF,PressureIn,WindDirection,WindDirectionDegrees,WindSpeedMPH,WindSpeedGustMPH,Humidity,HourlyPrecipIn,Conditions,Clouds,dailyrainin,SoftwareType,DateUTC
2013-03-22 00:02:00,25.0,21.0,30.03,NNE,30,0.0,0.0,84,0.00,,,0.00,,2013-03-22 05:02:00,
2013-03-22 00:12:00,25.0,21.0,30.03,NNE,30,0.0,0.0,84,0.00,,,0.00,,2013-03-22 05:12:00,
2013-03-22 00:22:00,25.0,21.0,30.03,NNE,30,0.0,0.0,83,0.00,,,0.00,,2013-03-22 05:22:00,
2013-03-22 00:32:00,25.0,21.0,30.03,NNE,30,0.0,0.0,85,0.00,,,0.00,,2013-03-22 05:32:00,
2013-03-22 00:42:00,25.0,21.0,30.03,NNE,30,0.0,0.0,85,0.00,,,0.00,,2013-03-22 05:42:00,
2013-03-22 00:52:00,24.0,20.0,30.03,NNE,30,0.0,0.0,85,0.00,,,0.00,,2013-03-22 05:52:00,
2013-03-22 01:02:00,24.0,20.0,30.04,NNE,30,0.0,0.0,85,0.00,,,0.00,,2013-03-22 06:02:00,
2013-03-22 01:13:00,24.0,20.0,30.04,NNE,30,0.0,0.0,85,0.00,,,0.00,,2013-03-22 06:13:00,
2013-03-22 01:22:00,24.0,20.0,30.04,NNE,30,0.0,0.0,85,0.00,,,0.00,,2013-03-22 06:22:00,
2013-03-22 01:32:00,24.0,20.0,30.04,NNE,30,0.0,0.0,85,0.00,,,0.00,,2013-03-22 06:32:00,
2013-03-22 01:42:00,24.0,20.0,30.04,NNE,30,0.0,0.0,85,0.00,,,0.00,,2013-03-22 06:42:00,
2013-03-22 01:52:00,24.0,20.0,30.04,NNE,30,0.0,0.0,85,0.00,,,0.00,,2013-03-22 06:52:00,
2013-03-22 02:02:00,23.0,20.0,30.04,NNE,30,0.0,0.0,88,0.00,,,0.00,,2013-03-22 07:02:00,
2013-03-22 02:12:00,23.0,20.0,30.04,NNE,30,0.0,0.0,88,0.00,,,0.00,,2013-03-22 07:12:00,
2013-03-22 02:22:00,23.0,21.0,30.04,NNE,30,0.0,0.0,92,0.00,,,0.00,,2013-03-22 07:22:00,
2013-03-22 02:32:00,24.0,22.0,30.04,NNE,18,0.0,6.0,92,0.00,,,0.00,,2013-03-22 07:32:00,
2013-03-22 02:42:00,24.0,22.0,30.04,NNE,18,0.0,6.0,92,0.00,,,0.00,,2013-03-22 07:42:00,
2013-03-22 02:52:00,24.0,22.0,30.04,NNE,18,0.0,6.0,92,0.00,,,0.00,,2013-03-22 07:52:00,
2013-03-22 03:03:00,24.0,23.0,30.04,NNE,17,5.0,6.0,94,0.00,,,0.00,,2013-03-22 08:03:00,
2013-03-22 03:12:00,24.0,23.0,30.04,NNE,17,5.0,6.0,94,0.00,,,0.00,,2013-03-22 08:12:00,
2013-03-22 03:22:00,23.0,21.0,30.04,North,9,6.0,6.0,92,0.00,,,0.00,,2013-03-22 08:22:00,
2013-03-22 03:32:00,23.0,22.0,30.04,North,11,5.0,7.0,95,0.00,,,0.00,,2013-03-22 08:32:00,
2013-03-22 03:42:00,23.0,22.0,30.04,North,11,5.0,7.0,95,0.00,,,0.00,,2013-03-22 08:42:00,
2013-03-22 03:52:00,23.0,22.0,30.05,NNE,31,0.0,5.0,94,0.00,,,0.00,,2013-03-22 08:52:00,
2013-03-22 04:02:00,23.0,22.0,30.05,NNE,31,0.0,0.0,95,0.00,,,0.00,,2013-03-22 09:02:00,
2013-03-22 04:12:00,23.0,22.0,30.05,NNE,31,0.0,0.0,95,0.00,,,0.00,,2013-03-22 09:12:00,
2013-03-22 04:22:00,23.0,22.0,30.05,NNE,31,0.0,0.0,95,0.00,,,0.00,,2013-03-22 09:22:00,
2013-03-22 04:32:00,22.0,21.0,30.05,NNE,31,0.0,0.0,95,0.00,,,0.00,,2013-03-22 09:32:00,
2013-03-22 04:42:00,22.0,21.0,30.05,NNE,31,0.0,0.0,95,0.00,,,0.00,,2013-03-22 09:42:00,
2013-03-22 04:53:00,22.0,21.0,30.05,NNE,31,0.0,0.0,95,0.00,,,0.00,,2013-03-22 09:53:00,
2013-03-22 05:03:00,21.0,20.0,30.05,NNE,31,0.0,0.0,96,0.00,,,0.00,,2013-03-22 10:03:00,
2013-03-22 05:12:00,21.0,20.0,30.05,NNE,31,0.0,0.0,96,0.00,,,0.00,,2013-03-22 10:12:00,
2013-03-22 05:22:00,20.0,19.0,30.04,NNE,31,0.0,0.0,95,0.00,,,0.00,,2013-03-22 10:22:00,
2013-03-22 05:32:00,19.0,18.0,30.05,NNE,31,0.0,0.0,96,0.00,,,0.00,,2013-03-22 10:32:00,
2013-03-22 05:42:00,19.0,18.0,30.05,NNE,31,0.0,0.0,96,0.00,,,0.00,,2013-03-22 10:42:00,
2013-03-22 05:52:00,20.0,19.0,30.05,NNE,31,0.0,0.0,96,0.00,,,0.00,,2013-03-22 10:52:00,
2013-03-22 06:03:00,20.0,19.0,30.05,NNE,31,0.0,0.0,96,0.00,,,0.00,,2013-03-22 11:03:00,
2013-03-22 06:12:00,20.0,19.0,30.05,NNE,31,0.0,0.0,96,0.00,,,0.00,,2013-03-22 11:12:00,
2013-03-22 06:22:00,21.0,20.0,30.05,NNE,31,0.0,0.0,96,0.00,,,0.00,,2013-03-22 11:22:00,
2013-03-22 06:33:00,23.0,22.0,30.05,NNE,31,0.0,0.0,97,0.00,,,0.00,,2013-03-22 11:33:00,
2013-03-22 06:42:00,23.0,22.0,30.05,NNE,31,0.0,0.0,97,0.00,,,0.00,,2013-03-22 11:42:00,
2013-03-22 06:52:00,23.0,22.0,30.05,NNE,31,0.0,0.0,97,0.00,,,0.00,,2013-03-22 11:52:00,
2013-03-22 07:02:00,21.0,20.0,30.05,NNE,31,0.0,0.0,97,0.00,,,0.00,,2013-03-22 12:02:00,
2013-03-22 07:12:00,21.0,20.0,30.05,NNE,31,0.0,0.0,97,0.00,,,0.00,,2013-03-22 12:12:00,
2013-03-22 07:22:00,20.0,19.0,30.05,NNE,31,0.0,0.0,97,0.00,,,0.00,,2013-03-22 12:22:00,
2013-03-22 07:32:00,20.0,19.0,30.06,NNE,31,0.0,0.0,97,0.00,,,0.00,,2013-03-22 12:32:00,
2013-03-22 07:42:00,20.0,19.0,30.06,NNE,31,0.0,0.0,97,0.00,,,0.00,,2013-03-22 12:42:00,
2013-03-22 07:52:00,20.0,19.0,30.06,NNE,31,0.0,0.0,97,0.00,,,0.00,,2013-03-22 12:52:00,
2013-03-22 08:02:00,21.0,20.0,30.06,NNE,31,0.0,0.0,97,0.00,,,0.00,,2013-03-22 13:02:00,
2013-03-22 08:12:00,21.0,20.0,30.06,NNE,31,0.0,0.0,97,0.00,,,0.00,,2013-03-22 13:12:00,
2013-03-22 08:22:00,21.0,20.0,30.06,NNE,31,0.0,0.0,97,0.00,,,0.00,,2013-03-22 13:22:00,
2013-03-22 08:32:00,24.0,23.0,30.06,NNE,31,0.0,0.0,96,0.00,,,0.00,,2013-03-22 13:32:00,
2013-03-22 08:42:00,24.0,23.0,30.06,NNE,31,0.0,0.0,96,0.00,,,0.00,,2013-03-22 13:42:00,
2013-03-22 08:52:00,26.0,22.0,30.06,East,80,6.0,8.0,86,0.00,,,0.00,,2013-03-22 13:52:00,
2013-03-22 09:02:00,28.0,23.0,30.06,East,81,5.0,8.0,81,0.00,,,0.00,,2013-03-22 14:02:00,
2013-03-22 09:12:00,28.0,23.0,30.06,East,81,5.0,8.0,81,0.00,,,0.00,,2013-03-22 14:12:00,
2013-03-22 09:22:00,29.0,23.0,30.06,SE,136,5.0,10.0,79,0.00,,,0.00,,2013-03-22 14:22:00,
2013-03-22 09:32:00,29.0,23.0,30.07,SE,124,7.0,9.0,77,0.00,,,0.00,,2013-03-22 14:32:00,
2013-03-22 09:42:00,29.0,23.0,30.07,SE,124,7.0,9.0,77,0.00,,,0.00,,2013-03-22 14:42:00,
2013-03-22 09:52:00,31.0,23.0,30.06,South,173,5.0,9.0,71,0.00,,,0.00,,2013-03-22 14:52:00,
2013-03-22 10:03:00,32.0,23.0,30.06,SE,130,6.0,9.0,69,0.00,,,0.00,,2013-03-22 15:03:00,
2013-03-22 10:12:00,32.0,23.0,30.06,SE,130,6.0,9.0,69,0.00,,,0.00,,2013-03-22 15:12:00,
2013-03-22 10:22:00,32.0,22.0,30.06,SSW,207,7.0,10.0,67,0.00,,,0.00,,2013-03-22 15:22:00,
2013-03-22 10:32:00,33.0,24.0,30.06,SSW,197,3.0,12.0,68,0.00,,,0.00,,2013-03-22 15:32:00,
2013-03-22 10:42:00,33.0,24.0,30.06,SSW,197,3.0,12.0,68,0.00,,,0.00,,2013-03-22 15:42:00,
2013-03-22 10:52:00,34.0,24.0,30.06,SSE,164,3.0,14.0,66,0.00,,,0.00,,2013-03-22 15:52:00,
2013-03-22 11:02:00,35.0,22.0,30.06,SSE,148,5.0,13.0,59,0.00,,,0.00,,2013-03-22 16:02:00,
2013-03-22 11:13:00,36.0,23.0,30.06,SW,227,3.0,10.0,58,0.00,,,0.00,,2013-03-22 16:13:00,
2013-03-22 11:22:00,36.0,23.0,30.06,SW,227,3.0,10.0,58,0.00,,,0.00,,2013-03-22 16:22:00,
2013-03-22 11:32:00,35.0,22.0,30.06,SW,234,5.0,12.0,58,0.00,,,0.00,,2013-03-22 16:32:00,
2013-03-22 11:42:00,35.0,22.0,30.06,SW,234,5.0,12.0,58,0.00,,,0.00,,2013-03-22 16:42:00,
2013-03-22 11:52:00,36.0,21.0,30.06,SE,135,3.0,12.0,54,0.00,,,0.00,,2013-03-22 16:52:00,
2013-03-22 12:03:00,37.0,22.0,30.06,South,183,7.0,10.0,54,0.00,,,0.00,,2013-03-22 17:03:00,
2013-03-22 12:12:00,37.0,22.0,30.06,SSW,197,5.0,12.0,54,0.00,,,0.00,,2013-03-22 17:12:00,
2013-03-22 12:23:00,37.0,22.0,30.06,SSW,197,5.0,12.0,54,0.00,,,0.00,,2013-03-22 17:23:00,
2013-03-22 12:32:00,38.0,20.0,30.05,SSE,166,4.0,13.0,48,0.00,,,0.00,,2013-03-22 17:32:00,
2013-03-22 12:42:00,38.0,20.0,30.05,SSE,166,4.0,13.0,48,0.00,,,0.00,,2013-03-22 17:42:00,
2013-03-22 12:52:00,39.0,21.0,30.05,East,100,5.0,12.0,49,0.00,,,0.00,,2013-03-22 17:52:00,
2013-03-22 13:02:00,38.0,22.0,30.05,SSW,200,3.0,9.0,52,0.00,,,0.00,,2013-03-22 18:02:00,
2013-03-22 13:12:00,38.0,22.0,30.05,SSW,200,3.0,9.0,52,0.00,,,0.00,,2013-03-22 18:12:00,
2013-03-22 13:22:00,39.0,21.0,30.03,West,272,5.0,10.0,48,0.00,,,0.00,,2013-03-22 18:22:00,
2013-03-22 13:33:00,40.0,23.0,30.03,WNW,295,1.0,10.0,50,0.00,,,0.00,,2013-03-22 18:33:00,
2013-03-22 13:42:00,40.0,23.0,30.03,WNW,295,1.0,10.0,50,0.00,,,0.00,,2013-03-22 18:42:00,
2013-03-22 13:52:00,40.0,22.0,30.02,SW,221,5.0,10.0,48,0.00,,,0.00,,2013-03-22 18:52:00,
2013-03-22 14:02:00,40.0,22.0,30.02,SW,221,5.0,10.0,48,0.00,,,0.00,,2013-03-22 19:02:00,
2013-03-22 14:12:00,40.0,22.0,30.02,SW,221,5.0,10.0,48,0.00,,,0.00,,2013-03-22 19:12:00,
2013-03-22 14:22:00,40.0,22.0,30.02,SW,221,5.0,10.0,48,0.00,,,0.00,,2013-03-22 19:22:00,
2013-03-22 14:33:00,41.0,22.0,30.01,SSE,165,7.0,13.0,46,0.00,,,0.00,,2013-03-22 19:33:00,
2013-03-22 14:43:00,41.0,22.0,30.01,SSE,165,7.0,13.0,46,0.00,,,0.00,,2013-03-22 19:43:00,
2013-03-22 14:52:00,41.0,22.0,30.00,North,359,5.0,12.0,46,0.00,,,0.00,,2013-03-22 19:52:00,
2013-03-22 15:02:00,43.0,24.0,30.00,WSW,247,6.0,14.0,46,0.00,,,0.00,,2013-03-22 20:02:00,
2013-03-22 15:12:00,43.0,24.0,30.00,WSW,247,6.0,14.0,46,0.00,,,0.00,,2013-03-22 20:12:00,
2013-03-22 15:22:00,42.0,22.0,30.00,SSW,207,7.0,16.0,45,0.00,,,0.00,,2013-03-22 20:22:00,
2013-03-22 15:32:00,42.0,23.0,29.99,SW,228,6.0,16.0,46,0.00,,,0.00,,2013-03-22 20:32:00,
2013-03-22 15:42:00,42.0,23.0,29.99,SW,228,6.0,16.0,46,0.00,,,0.00,,2013-03-22 20:42:00,
2013-03-22 15:52:00,43.0,23.0,29.99,South,183,11.0,16.0,45,0.00,,,0.00,,2013-03-22 20:52:00,
2013-03-22 16:03:00,42.0,22.0,29.99,North,352,6.0,12.0,45,0.00,,,0.00,,2013-03-22 21:03:00,
2013-03-22 16:12:00,42.0,22.0,29.99,North,352,6.0,12.0,45,0.00,,,0.00,,2013-03-22 21:12:00,
2013-03-22 16:22:00,42.0,22.0,29.99,North,352,6.0,12.0,45,0.00,,,0.00,,2013-03-22 21:22:00,
2013-03-22 16:32:00,43.0,24.0,29.99,SSE,150,6.0,12.0,46,0.00,,,0.00,,2013-03-22 21:32:00,
2013-03-22 16:43:00,43.0,24.0,29.99,SSE,150,6.0,12.0,46,0.00,,,0.00,,2013-03-22 21:43:00,
2013-03-22 16:53:00,44.0,24.0,29.99,SSE,165,6.0,8.0,45,0.00,,,0.00,,2013-03-22 21:53:00,
2013-03-22 17:03:00,44.0,23.0,30.00,SSE,151,6.0,10.0,44,0.00,,,0.00,,2013-03-22 22:03:00,
2013-03-22 17:12:00,44.0,23.0,30.00,SSE,151,6.0,10.0,44,0.00,,,0.00,,2013-03-22 22:12:00,
2013-03-22 17:23:00,44.0,23.0,30.00,SSE,151,6.0,10.0,44,0.00,,,0.00,,2013-03-22 22:23:00,
2013-03-22 17:32:00,45.0,24.0,30.00,WNW,292,2.0,12.0,43,0.00,,,0.00,,2013-03-22 22:32:00,
2013-03-22 17:42:00,45.0,24.0,30.00,WNW,292,2.0,12.0,43,0.00,,,0.00,,2013-03-22 22:42:00,
2013-03-22 17:53:00,44.0,22.0,30.00,SSW,213,7.0,13.0,42,0.00,,,0.00,,2013-03-22 22:53:00,
2013-03-22 18:02:00,44.0,23.0,30.01,SSE,162,1.0,12.0,44,0.00,,,0.00,,2013-03-22 23:02:00,
2013-03-22 18:12:00,44.0,23.0,30.01,SSE,162,1.0,12.0,44,0.00,,,0.00,,2013-03-22 23:12:00,
2013-03-22 18:22:00,44.0,23.0,30.01,SSE,162,1.0,12.0,44,0.00,,,0.00,,2013-03-22 23:22:00,
2013-03-22 18:32:00,43.0,23.0,30.00,West,263,0.0,7.0,44,0.00,,,0.00,,2013-03-22 23:32:00,
2013-03-22 18:42:00,43.0,23.0,30.00,West,263,0.0,7.0,44,0.00,,,0.00,,2013-03-22 23:42:00,
2013-03-22 18:52:00,43.0,23.0,29.99,West,263,2.0,6.0,44,0.00,,,0.00,,2013-03-22 23:52:00,
2013-03-22 19:02:00,42.0,23.0,29.99,North,4,3.0,7.0,47,0.00,,,0.00,,2013-03-23 00:02:00,
2013-03-22 19:12:00,42.0,23.0,29.99,North,4,3.0,7.0,47,0.00,,,0.00,,2013-03-23 00:12:00,
2013-03-22 19:23:00,42.0,23.0,29.99,North,4,3.0,7.0,47,0.00,,,0.00,,2013-03-23 00:23:00,
2013-03-22 19:32:00,41.0,24.0,30.01,NW,309,0.0,5.0,50,0.00,,,0.00,,2013-03-23 00:32:00,
2013-03-22 19:42:00,41.0,24.0,30.01,NW,309,0.0,5.0,50,0.00,,,0.00,,2013-03-23 00:42:00,
2013-03-22 19:52:00,40.0,24.0,30.01,NW,309,0.0,0.0,52,0.00,,,0.00,,2013-03-23 00:52:00,
2013-03-22 20:03:00,38.0,25.0,30.01,NNW,343,7.0,12.0,60,0.00,,,0.00,,2013-03-23 01:03:00,
2013-03-22 20:12:00,38.0,25.0,30.01,NNW,343,7.0,12.0,60,0.00,,,0.00,,2013-03-23 01:12:00,
2013-03-22 20:22:00,37.0,27.0,30.01,North,6,7.0,12.0,66,0.00,,,0.00,,2013-03-23 01:22:00,
2013-03-22 20:32:00,36.0,28.0,30.01,North,357,3.0,10.0,71,0.00,,,0.00,,2013-03-23 01:32:00,
2013-03-22 20:42:00,36.0,28.0,30.01,North,357,3.0,10.0,71,0.00,,,0.00,,2013-03-23 01:42:00,
2013-03-22 20:52:00,36.0,27.0,30.02,NNE,22,7.0,10.0,70,0.00,,,0.00,,2013-03-23 01:52:00,
2013-03-22 21:02:00,36.0,27.0,30.03,North,10,4.0,8.0,70,0.00,,,0.00,,2013-03-23 02:02:00,
2013-03-22 21:12:00,36.0,27.0,30.03,North,10,4.0,8.0,70,0.00,,,0.00,,2013-03-23 02:12:00,
2013-03-22 21:22:00,36.0,28.0,30.03,NNE,18,0.0,7.0,72,0.00,,,0.00,,2013-03-23 02:22:00,
2013-03-22 21:32:00,36.0,28.0,30.03,NNE,18,0.0,0.0,71,0.00,,,0.00,,2013-03-23 02:32:00,
2013-03-22 21:42:00,36.0,28.0,30.03,NNE,18,0.0,0.0,71,0.00,,,0.00,,2013-03-23 02:42:00,
2013-03-22 21:52:00,36.0,28.0,30.03,NNE,18,0.0,0.0,71,0.00,,,0.00,,2013-03-23 02:52:00,
2013-03-22 22:02:00,35.0,28.0,30.03,NNE,16,7.0,12.0,75,0.00,,,0.00,,2013-03-23 03:02:00,
2013-03-22 22:12:00,35.0,28.0,30.03,NNE,16,7.0,12.0,75,0.00,,,0.00,,2013-03-23 03:12:00,
2013-03-22 22:22:00,34.0,28.0,30.04,NNE,19,8.0,13.0,78,0.00,,,0.00,,2013-03-23 03:22:00,
2013-03-22 22:33:00,34.0,28.0,30.04,NNE,19,8.0,13.0,78,0.00,,,0.00,,2013-03-23 03:33:00,
2013-03-22 22:43:00,34.0,28.0,30.04,NNE,19,8.0,13.0,78,0.00,,,0.00,,2013-03-23 03:43:00,
2013-03-22 22:53:00,34.0,28.0,30.03,NNE,13,6.0,13.0,79,0.00,,,0.00,,2013-03-23 03:53:00,
2013-03-22 23:02:00,34.0,29.0,30.04,NE,36,7.0,13.0,82,0.00,,,0.00,,2013-03-23 04:02:00,
2013-03-22 23:12:00,34.0,29.0,30.04,NE,36,7.0,13.0,82,0.00,,,0.00,,2013-03-23 04:12:00,
2013-03-22 23:23:00,33.0,28.0,30.04,NNE,23,6.0,14.0,80,0.00,,,0.00,,2013-03-23 04:23:00,
2013-03-22 23:32:00,33.0,28.0,30.03,ENE,62,8.0,14.0,80,0.00,,,0.00,,2013-03-23 04:32:00,
2013-03-22 23:43:00,33.0,28.0,30.03,ENE,62,8.0,14.0,80,0.00,,,0.00,,2013-03-23 04:43:00,
2013-03-22 23:53:00,33.0,28.0,30.03,ENE,62,8.0,14.0,80,0.00,,,0.00,,2013-03-23 04:53:00,